createdAt,value
2022-11-03T00:01:48.079Z,17.10
2022-11-03T00:04:17.744Z,17.10
2022-11-03T00:06:46.984Z,17.10
2022-11-03T00:09:15.763Z,17.10
2022-11-03T00:11:45.151Z,17.10
2022-11-03T00:14:14.645Z,17.10
2022-11-03T00:16:41.701Z,17.10
2022-11-03T00:19:10.280Z,17.10
2022-11-03T00:21:38.300Z,17.10
2022-11-03T00:24:05.721Z,17.10
2022-11-03T00:26:34.499Z,17.00
2022-11-03T00:29:12.769Z,17.00
2022-11-03T00:31:42.675Z,17.00
2022-11-03T00:34:10.366Z,17.00
2022-11-03T00:36:42.432Z,17.00
2022-11-03T00:39:10.343Z,17.00
2022-11-03T00:41:38.048Z,17.00
2022-11-03T00:44:05.115Z,17.00
2022-11-03T00:46:35.400Z,16.90
2022-11-03T00:49:04.636Z,17.00
2022-11-03T00:51:34.051Z,17.00
2022-11-03T00:54:02.779Z,16.90
2022-11-03T00:56:38.172Z,17.00
2022-11-03T00:59:06.791Z,16.90
2022-11-03T01:01:46.798Z,17.00
2022-11-03T01:04:34.802Z,16.90
2022-11-03T01:07:01.924Z,16.90
2022-11-03T01:09:39.315Z,16.90
2022-11-03T01:12:12.145Z,16.90
2022-11-03T01:14:42.568Z,16.90
2022-11-03T01:17:12.390Z,16.90
2022-11-03T01:19:39.453Z,16.90
2022-11-03T01:22:10.689Z,16.90
2022-11-03T01:24:41.144Z,16.90
2022-11-03T01:27:10.048Z,16.90
2022-11-03T01:29:37.092Z,16.90
2022-11-03T01:32:04.236Z,16.90
2022-11-03T01:34:31.556Z,16.80
2022-11-03T01:36:58.529Z,16.80
2022-11-03T01:39:25.665Z,16.80
2022-11-03T01:41:53.413Z,16.90
2022-11-03T01:44:29.502Z,16.90
2022-11-03T01:46:56.435Z,16.90
2022-11-03T01:49:27.268Z,16.90
2022-11-03T01:52:06.214Z,16.90
2022-11-03T01:54:36.189Z,16.90
2022-11-03T01:57:07.257Z,16.80
2022-11-03T01:59:34.934Z,16.90
2022-11-03T02:02:02.767Z,16.90
2022-11-03T02:04:33.192Z,16.90
2022-11-03T02:07:11.268Z,16.90
2022-11-03T02:09:38.255Z,16.90
2022-11-03T02:12:08.720Z,16.80
2022-11-03T02:14:39.850Z,16.90
2022-11-03T02:17:10.941Z,16.90
2022-11-03T02:20:07.024Z,16.90
2022-11-03T02:22:48.091Z,16.90
2022-11-03T02:25:44.173Z,16.90
2022-11-03T02:28:12.941Z,16.90
2022-11-03T02:31:15.210Z,16.90
2022-11-03T02:34:12.615Z,16.90
2022-11-03T02:36:53.812Z,16.90
2022-11-03T02:39:29.806Z,16.90
2022-11-03T02:41:58.999Z,16.90
2022-11-03T02:44:27.461Z,16.90
2022-11-03T02:47:01.020Z,16.90
2022-11-03T02:49:28.082Z,16.90
2022-11-03T02:52:05.195Z,16.90
2022-11-03T02:54:40.252Z,16.90
2022-11-03T02:57:20.867Z,16.90
2022-11-03T03:00:01.305Z,16.90
2022-11-03T03:02:44.184Z,16.90
2022-11-03T03:05:14.331Z,16.90
2022-11-03T03:07:46.134Z,16.90
2022-11-03T03:10:24.011Z,16.90
2022-11-03T03:12:57.115Z,16.90
2022-11-03T03:15:34.819Z,16.90
2022-11-03T03:18:30.696Z,16.90
2022-11-03T03:21:07.296Z,16.80
2022-11-03T03:23:38.307Z,16.80
2022-11-03T03:26:10.255Z,16.80
2022-11-03T03:28:47.741Z,16.80
2022-11-03T03:31:16.897Z,16.90
2022-11-03T03:33:47.972Z,16.90
2022-11-03T03:36:18.234Z,16.90
2022-11-03T03:38:53.619Z,16.90
2022-11-03T03:41:22.310Z,16.90
2022-11-03T03:43:56.225Z,16.90
2022-11-03T03:46:29.135Z,16.90
2022-11-03T03:48:56.294Z,16.90
2022-11-03T03:51:26.360Z,16.90
2022-11-03T03:53:55.420Z,16.90
2022-11-03T03:56:34.624Z,16.90
2022-11-03T03:59:01.617Z,16.90
2022-11-03T04:01:28.747Z,16.90
2022-11-03T04:03:55.813Z,16.90
2022-11-03T04:06:22.799Z,16.90
2022-11-03T04:08:49.722Z,16.90
2022-11-03T04:11:35.601Z,16.90
2022-11-03T04:14:22.487Z,16.90
2022-11-03T04:17:07.865Z,16.90
2022-11-03T04:19:53.713Z,16.90
2022-11-03T04:22:22.217Z,16.90
2022-11-03T04:24:51.184Z,16.90
2022-11-03T04:27:35.508Z,16.90
2022-11-03T04:30:22.160Z,16.90
2022-11-03T04:32:51.132Z,16.90
2022-11-03T04:35:27.651Z,16.90
2022-11-03T04:38:02.051Z,16.90
2022-11-03T04:40:29.278Z,16.80
2022-11-03T04:42:57.591Z,16.90
2022-11-03T04:45:31.991Z,16.80
2022-11-03T04:48:01.846Z,16.80
2022-11-03T04:50:28.843Z,16.80
2022-11-03T04:52:59.987Z,16.80
2022-11-03T04:55:27.345Z,16.80
2022-11-03T04:58:00.266Z,16.80
2022-11-03T05:00:27.265Z,16.80
2022-11-03T05:02:56.163Z,16.80
2022-11-03T05:05:26.186Z,16.80
2022-11-03T05:07:56.574Z,16.80
2022-11-03T05:10:29.152Z,16.80
2022-11-03T05:12:57.633Z,16.80
2022-11-03T05:15:31.583Z,16.80
2022-11-03T05:18:00.335Z,16.80
2022-11-03T05:20:36.385Z,16.80
2022-11-03T05:23:05.929Z,16.80
2022-11-03T05:25:41.437Z,16.80
2022-11-03T05:28:30.665Z,16.80
2022-11-03T05:30:57.795Z,16.80
2022-11-03T05:33:37.711Z,16.80
2022-11-03T05:36:22.275Z,16.80
2022-11-03T05:38:49.992Z,16.80
2022-11-03T05:41:24.569Z,16.80
2022-11-03T05:44:25.729Z,16.80
2022-11-03T05:46:52.950Z,16.80
2022-11-03T05:49:20.265Z,16.70
2022-11-03T05:51:47.637Z,16.70
2022-11-03T05:54:27.342Z,16.80
2022-11-03T05:56:56.202Z,16.70
2022-11-03T05:59:29.475Z,16.80
2022-11-03T06:02:00.614Z,16.70
2022-11-03T06:04:37.467Z,16.70
2022-11-03T06:07:29.477Z,16.70
2022-11-03T06:09:57.723Z,16.70
2022-11-03T06:12:25.945Z,16.70
2022-11-03T06:14:53.236Z,16.70
2022-11-03T06:17:26.247Z,16.70
2022-11-03T06:19:57.500Z,16.70
2022-11-03T06:22:37.940Z,16.70
2022-11-03T06:25:26.508Z,16.70
2022-11-03T06:27:55.065Z,16.70
2022-11-03T06:30:31.045Z,16.70
2022-11-03T06:33:04.744Z,16.70
2022-11-03T06:35:32.042Z,16.70
2022-11-03T06:38:00.144Z,16.70
2022-11-03T06:40:35.971Z,16.70
2022-11-03T06:43:23.005Z,16.70
2022-11-03T06:45:53.375Z,16.70
2022-11-03T06:48:34.479Z,16.70
2022-11-03T06:51:01.816Z,16.70
2022-11-03T06:53:32.831Z,16.70
2022-11-03T06:56:00.128Z,16.70
2022-11-03T06:58:36.676Z,16.70
2022-11-03T07:01:16.062Z,16.70
2022-11-03T07:03:43.073Z,16.70
2022-11-03T07:06:21.311Z,16.70
2022-11-03T07:08:51.898Z,16.70
2022-11-03T07:11:20.073Z,16.80
2022-11-03T07:13:50.077Z,16.80
2022-11-03T07:16:35.055Z,16.80
2022-11-03T07:19:06.209Z,16.70
2022-11-03T07:21:38.055Z,16.70
2022-11-03T07:24:27.219Z,16.70
2022-11-03T07:27:14.098Z,16.70
2022-11-03T07:29:41.729Z,16.70
2022-11-03T07:32:23.746Z,16.70
2022-11-03T07:34:53.630Z,16.70
2022-11-03T07:37:24.520Z,16.80
2022-11-03T07:39:52.763Z,16.80
2022-11-03T07:42:24.300Z,16.80
2022-11-03T07:44:55.845Z,16.80
2022-11-03T07:47:25.815Z,16.70
2022-11-03T07:49:54.269Z,16.70
2022-11-03T07:52:24.289Z,16.70
2022-11-03T07:54:54.908Z,16.70
2022-11-03T07:57:32.032Z,16.70
2022-11-03T08:00:08.854Z,16.70
2022-11-03T08:02:49.118Z,16.70
2022-11-03T08:05:16.380Z,16.70
2022-11-03T08:07:43.580Z,16.60
2022-11-03T08:10:10.699Z,16.60
2022-11-03T08:12:37.650Z,16.60
2022-11-03T08:15:05.201Z,16.60
2022-11-03T08:17:32.101Z,16.60
2022-11-03T08:19:59.107Z,16.60
2022-11-03T08:22:26.160Z,16.60
2022-11-03T08:24:53.510Z,16.70
2022-11-03T08:27:20.480Z,16.70
2022-11-03T08:29:47.564Z,16.70
2022-11-03T08:32:14.517Z,16.70
2022-11-03T08:34:41.448Z,16.60
2022-11-03T08:37:08.401Z,16.60
2022-11-03T08:39:36.219Z,16.60
2022-11-03T08:42:03.371Z,16.60
2022-11-03T08:44:30.485Z,16.60
2022-11-03T08:46:57.775Z,16.70
2022-11-03T08:49:24.767Z,16.70
2022-11-03T08:51:51.714Z,16.70
2022-11-03T08:54:18.616Z,16.70
2022-11-03T08:56:46.622Z,16.70
2022-11-03T08:59:13.767Z,16.70
2022-11-03T09:01:40.787Z,16.70
2022-11-03T09:04:07.904Z,16.80
2022-11-03T09:06:34.976Z,16.70
2022-11-03T09:11:48.893Z,16.70
2022-11-03T09:14:17.260Z,16.70
2022-11-03T09:16:44.312Z,16.70
2022-11-03T09:19:11.386Z,16.70
2022-11-03T09:21:38.312Z,16.70
2022-11-03T09:24:05.662Z,16.70
2022-11-03T09:26:32.641Z,16.70
2022-11-03T09:28:59.601Z,16.80
2022-11-03T09:31:28.476Z,16.80
2022-11-03T09:33:55.566Z,16.90
2022-11-03T09:36:22.498Z,16.90
2022-11-03T09:38:49.474Z,17.00
2022-11-03T09:41:35.201Z,17.00
2022-11-03T09:44:07.208Z,17.00
2022-11-03T09:46:35.306Z,17.00
2022-11-03T09:49:03.532Z,17.10
2022-11-03T09:51:32.023Z,17.10
2022-11-03T09:54:03.304Z,17.10
2022-11-03T09:56:31.207Z,17.10
2022-11-03T09:58:59.802Z,17.20
2022-11-03T10:01:27.108Z,17.30
2022-11-03T10:03:59.440Z,17.30
2022-11-03T10:06:26.490Z,17.40
2022-11-03T10:08:53.533Z,17.30
2022-11-03T10:11:20.476Z,17.40
2022-11-03T10:13:53.187Z,17.40
2022-11-03T10:16:23.119Z,17.40
2022-11-03T10:18:50.556Z,17.40
2022-11-03T10:21:30.987Z,17.40
2022-11-03T10:23:57.937Z,17.30
2022-11-03T10:26:24.856Z,17.40
2022-11-03T10:29:00.214Z,17.30
2022-11-03T10:31:34.750Z,17.30
2022-11-03T10:34:02.301Z,17.30
2022-11-03T10:36:31.789Z,17.40
2022-11-03T10:38:59.499Z,17.40
2022-11-03T10:41:29.909Z,17.40
2022-11-03T10:44:20.288Z,17.40
2022-11-03T10:47:26.829Z,17.40
2022-11-03T10:49:55.083Z,17.50
2022-11-03T10:52:25.357Z,17.50
2022-11-03T10:54:54.969Z,17.50
2022-11-03T10:57:23.193Z,17.50
2022-11-03T10:59:53.101Z,17.50
2022-11-03T11:02:25.035Z,17.50
2022-11-03T11:04:59.393Z,17.50
2022-11-03T11:07:43.832Z,17.60
2022-11-03T11:10:21.158Z,17.60
2022-11-03T11:13:26.996Z,17.60
2022-11-03T11:15:58.014Z,17.60
2022-11-03T11:18:30.741Z,17.60
2022-11-03T11:21:01.939Z,17.60
2022-11-03T11:23:29.250Z,17.60
2022-11-03T11:26:14.993Z,17.70
2022-11-03T11:29:08.317Z,17.70
2022-11-03T11:31:42.637Z,17.80
2022-11-03T11:34:09.741Z,17.80
2022-11-03T11:36:41.722Z,17.80
2022-11-03T11:39:34.006Z,17.80
2022-11-03T11:42:15.655Z,17.80
2022-11-03T11:44:58.052Z,17.80
2022-11-03T11:47:45.322Z,17.90
2022-11-03T11:50:15.165Z,17.90
2022-11-03T11:52:50.949Z,17.90
2022-11-03T11:55:32.221Z,18.00
2022-11-03T11:58:01.837Z,18.00
2022-11-03T12:00:32.606Z,18.10
2022-11-03T12:03:01.536Z,18.10
2022-11-03T12:05:34.496Z,18.20
2022-11-03T12:08:01.570Z,18.30
2022-11-03T12:10:31.337Z,18.40
2022-11-03T12:12:59.975Z,18.50
2022-11-03T12:15:55.767Z,18.50
2022-11-03T12:18:41.583Z,18.60
2022-11-03T12:21:30.704Z,18.50
2022-11-03T12:23:57.716Z,18.50
2022-11-03T12:26:27.381Z,18.50
2022-11-03T12:28:54.618Z,18.50
2022-11-03T12:31:21.719Z,18.50
2022-11-03T12:33:48.675Z,18.50
2022-11-03T12:36:15.599Z,18.50
2022-11-03T12:38:42.508Z,18.50
2022-11-03T12:41:21.667Z,18.50
2022-11-03T12:43:49.868Z,18.50
2022-11-03T12:46:18.116Z,18.60
2022-11-03T12:48:47.241Z,18.70
2022-11-03T12:51:19.433Z,18.80
2022-11-03T12:53:46.702Z,18.80
2022-11-03T12:56:14.828Z,18.80
2022-11-03T12:58:42.132Z,18.80
2022-11-03T13:01:09.772Z,18.80
2022-11-03T13:03:37.337Z,18.80
2022-11-03T13:06:05.578Z,18.80
2022-11-03T13:08:32.529Z,18.80
2022-11-03T13:10:59.800Z,18.90
2022-11-03T13:13:27.054Z,18.90
2022-11-03T13:15:54.122Z,18.90
2022-11-03T13:18:22.515Z,18.80
2022-11-03T13:20:49.668Z,18.80
2022-11-03T13:23:20.239Z,18.80
2022-11-03T13:25:50.319Z,18.70
2022-11-03T13:28:17.364Z,18.70
2022-11-03T13:30:44.360Z,18.80
2022-11-03T13:33:11.488Z,18.80
2022-11-03T13:35:38.524Z,18.80
2022-11-03T13:38:05.563Z,18.80
2022-11-03T13:43:19.469Z,18.70
2022-11-03T13:45:46.440Z,18.70
2022-11-03T13:51:00.669Z,18.60
2022-11-03T13:56:20.920Z,18.60
2022-11-03T14:01:36.902Z,18.50
2022-11-03T14:06:51.890Z,18.50
2022-11-03T14:09:18.827Z,18.40
2022-11-03T14:12:04.830Z,18.40
2022-11-03T14:14:31.883Z,18.40
2022-11-03T14:16:58.931Z,18.40
2022-11-03T14:19:35.305Z,18.40
2022-11-03T14:22:05.218Z,18.30
2022-11-03T14:24:32.167Z,18.40
2022-11-03T14:26:59.231Z,18.30
2022-11-03T14:29:27.053Z,18.30
2022-11-03T14:31:54.662Z,18.30
2022-11-03T14:34:21.897Z,18.30
2022-11-03T14:36:49.000Z,18.30
2022-11-03T14:39:15.963Z,18.20
2022-11-03T14:42:18.208Z,18.20
2022-11-03T14:44:46.530Z,18.20
2022-11-03T14:47:18.764Z,18.20
2022-11-03T14:49:46.537Z,18.10
2022-11-03T14:52:14.176Z,18.10
2022-11-03T14:54:41.511Z,18.10
2022-11-03T14:57:09.717Z,18.10
2022-11-03T14:59:37.390Z,18.10
2022-11-03T15:02:04.784Z,18.10
2022-11-03T15:04:32.021Z,18.10
2022-11-03T15:06:59.039Z,18.00
2022-11-03T15:09:26.044Z,18.00
2022-11-03T15:11:53.097Z,18.00
2022-11-03T15:14:20.076Z,18.00
2022-11-03T15:16:48.041Z,18.00
2022-11-03T15:19:15.136Z,17.90
2022-11-03T15:21:42.180Z,17.90
2022-11-03T15:26:56.255Z,17.90
2022-11-03T15:29:24.081Z,17.90
2022-11-03T15:31:51.813Z,17.90
2022-11-03T15:34:18.832Z,17.90
2022-11-03T15:36:45.750Z,17.80
2022-11-03T15:39:13.484Z,17.80
2022-11-03T15:41:40.830Z,17.80
2022-11-03T15:44:07.734Z,17.80
2022-11-03T15:46:35.910Z,17.80
2022-11-03T15:49:03.383Z,17.80
2022-11-03T15:51:30.411Z,17.80
2022-11-03T15:53:59.104Z,17.70
2022-11-03T15:56:29.587Z,17.70
2022-11-03T15:58:56.884Z,17.70
2022-11-03T16:01:24.170Z,17.70
2022-11-03T16:03:51.775Z,17.70
2022-11-03T16:06:18.882Z,17.70
2022-11-03T16:08:45.797Z,17.60
2022-11-03T16:11:12.828Z,17.60
2022-11-03T16:13:39.798Z,17.70
2022-11-03T16:16:07.105Z,17.60
2022-11-03T16:18:34.643Z,17.60
2022-11-03T16:21:01.560Z,17.60
2022-11-03T16:23:28.553Z,17.60
2022-11-03T16:25:55.491Z,17.60
2022-11-03T16:28:23.247Z,17.60
2022-11-03T16:30:54.349Z,17.60
2022-11-03T16:33:22.206Z,17.50
2022-11-03T16:35:49.399Z,17.50
2022-11-03T16:38:16.864Z,17.50
2022-11-03T16:40:44.025Z,17.60
2022-11-03T16:43:11.590Z,17.50
2022-11-03T16:45:38.671Z,17.50
2022-11-03T16:48:06.659Z,17.50
2022-11-03T16:50:34.707Z,17.50
2022-11-03T16:53:02.040Z,17.50
2022-11-03T16:55:28.992Z,17.50
2022-11-03T16:57:56.060Z,17.50
2022-11-03T17:00:24.281Z,17.50
2022-11-03T17:02:51.752Z,17.50
2022-11-03T17:05:20.759Z,17.50
2022-11-03T17:07:53.187Z,17.50
2022-11-03T17:10:21.730Z,17.50
2022-11-03T17:12:49.320Z,17.50
2022-11-03T17:15:17.248Z,17.50
2022-11-03T17:17:44.450Z,17.50
2022-11-03T17:20:12.040Z,17.50
2022-11-03T17:22:39.525Z,17.50
2022-11-03T17:25:09.505Z,17.40
2022-11-03T17:27:52.464Z,17.40
2022-11-03T17:30:26.497Z,17.40
2022-11-03T17:32:56.481Z,17.40
2022-11-03T17:35:39.644Z,17.40
2022-11-03T17:38:13.751Z,17.40
2022-11-03T17:40:46.175Z,17.40
2022-11-03T17:43:18.491Z,17.40
2022-11-03T17:45:45.624Z,17.40
2022-11-03T17:48:12.759Z,17.40
2022-11-03T17:50:44.548Z,17.40
2022-11-03T17:53:20.742Z,17.40
2022-11-03T17:56:02.860Z,17.30
2022-11-03T17:58:40.494Z,17.40
2022-11-03T18:01:10.848Z,17.30
2022-11-03T18:03:37.832Z,17.30
2022-11-03T18:06:19.073Z,17.30
2022-11-03T18:08:47.770Z,17.30
2022-11-03T18:11:38.132Z,17.30
2022-11-03T18:14:05.246Z,17.30
2022-11-03T18:16:32.305Z,17.30
2022-11-03T18:18:59.654Z,17.30
2022-11-03T18:21:28.484Z,17.30
2022-11-03T18:23:56.054Z,17.30
2022-11-03T18:26:25.807Z,17.30
2022-11-03T18:28:53.871Z,17.30
2022-11-03T18:31:24.514Z,17.30
2022-11-03T18:33:52.719Z,17.30
2022-11-03T18:36:20.132Z,17.30
2022-11-03T18:38:48.458Z,17.30
2022-11-03T18:41:38.714Z,17.30
2022-11-03T18:44:30.582Z,17.30
2022-11-03T18:46:58.322Z,17.20
2022-11-03T18:49:27.368Z,17.20
2022-11-03T18:52:02.852Z,17.20
2022-11-03T18:54:32.776Z,17.20
2022-11-03T18:57:00.285Z,17.20
2022-11-03T18:59:31.823Z,17.20
2022-11-03T19:01:59.106Z,17.20
2022-11-03T19:04:26.314Z,17.20
2022-11-03T19:06:53.468Z,17.20
2022-11-03T19:09:24.504Z,17.20
2022-11-03T19:11:55.859Z,17.20
2022-11-03T19:14:31.845Z,17.20
2022-11-03T19:17:21.787Z,17.10
2022-11-03T19:19:48.142Z,17.10
2022-11-03T19:22:20.641Z,17.20
2022-11-03T19:24:47.993Z,17.10
2022-11-03T19:27:25.769Z,17.10
2022-11-03T19:29:53.508Z,17.10
2022-11-03T19:32:44.559Z,17.10
2022-11-03T19:35:33.408Z,17.10
2022-11-03T19:38:06.303Z,17.10
2022-11-03T19:40:33.786Z,17.10
2022-11-03T19:43:00.785Z,17.10
2022-11-03T19:45:29.087Z,17.10
2022-11-03T19:50:46.615Z,17.10
2022-11-03T19:53:20.180Z,17.10
2022-11-03T19:55:47.634Z,17.10
2022-11-03T19:58:26.504Z,17.10
2022-11-03T20:00:54.187Z,17.10
2022-11-03T20:03:22.205Z,17.10
2022-11-03T20:05:53.431Z,17.10
2022-11-03T20:08:32.336Z,17.10
2022-11-03T20:10:59.811Z,17.00
2022-11-03T20:13:31.311Z,17.00
2022-11-03T20:16:01.116Z,17.00
2022-11-03T20:18:28.632Z,17.00
2022-11-03T20:20:55.941Z,17.00
2022-11-03T20:23:25.937Z,17.00
2022-11-03T20:25:53.638Z,17.00
2022-11-03T20:28:28.325Z,17.00
2022-11-03T20:30:56.272Z,17.00
2022-11-03T20:33:25.221Z,17.00
2022-11-03T20:35:53.748Z,17.00
2022-11-03T20:38:22.816Z,16.90
2022-11-03T20:40:55.629Z,16.90
2022-11-03T20:43:32.674Z,16.90
2022-11-03T20:46:00.248Z,16.90
2022-11-03T20:48:28.586Z,16.90
2022-11-03T20:50:55.993Z,16.90
2022-11-03T20:53:24.958Z,16.90
2022-11-03T20:55:53.126Z,16.90
2022-11-03T20:58:20.350Z,16.90
2022-11-03T21:00:49.066Z,16.90
2022-11-03T21:03:37.999Z,16.90
2022-11-03T21:06:13.622Z,16.90
2022-11-03T21:08:40.742Z,16.90
2022-11-03T21:11:24.170Z,16.90
2022-11-03T21:13:59.216Z,16.80
2022-11-03T21:16:45.852Z,16.80
2022-11-03T21:19:43.019Z,16.80
2022-11-03T21:25:21.936Z,16.80
2022-11-03T21:27:51.717Z,16.80
2022-11-03T21:30:19.443Z,16.80
2022-11-03T21:32:47.842Z,16.80
2022-11-03T21:35:17.804Z,16.80
2022-11-03T21:37:44.815Z,16.80
2022-11-03T21:40:12.249Z,16.80
2022-11-03T21:42:57.686Z,16.80
2022-11-03T21:45:24.794Z,16.70
2022-11-03T21:48:13.614Z,16.70
2022-11-03T21:50:41.533Z,16.70
2022-11-03T21:53:09.116Z,16.70
2022-11-03T21:55:36.320Z,16.70
2022-11-03T21:58:04.442Z,16.70
2022-11-03T22:00:31.949Z,16.60
2022-11-03T22:03:00.199Z,16.60
2022-11-03T22:05:28.108Z,16.60
2022-11-03T22:07:55.095Z,16.60
2022-11-03T22:10:22.616Z,16.60
2022-11-03T22:12:49.696Z,16.50
2022-11-03T22:15:35.356Z,16.60
2022-11-03T22:18:06.863Z,16.50
2022-11-03T22:20:54.788Z,16.50
2022-11-03T22:23:40.152Z,16.50
2022-11-03T22:26:29.579Z,16.40
2022-11-03T22:29:20.004Z,16.50
2022-11-03T22:31:47.028Z,16.50
2022-11-03T22:34:32.913Z,16.40
2022-11-03T22:36:59.915Z,16.40
2022-11-03T22:39:45.948Z,16.40
2022-11-03T22:42:31.972Z,16.40
2022-11-03T22:45:17.386Z,16.40
2022-11-03T22:47:44.377Z,16.40
2022-11-03T22:50:11.369Z,16.50
2022-11-03T22:52:38.440Z,16.50
2022-11-03T22:55:05.707Z,16.50
2022-11-03T22:57:32.665Z,16.50
2022-11-03T22:59:59.597Z,16.50
2022-11-03T23:02:26.608Z,16.50
2022-11-03T23:04:53.562Z,16.50
2022-11-03T23:07:20.561Z,16.50
2022-11-03T23:09:47.926Z,16.50
2022-11-03T23:12:14.979Z,16.50
2022-11-03T23:15:00.414Z,16.50
2022-11-03T23:17:48.059Z,16.50
2022-11-03T23:20:33.416Z,16.50
2022-11-03T23:23:00.317Z,16.50
2022-11-03T23:25:27.265Z,16.50
2022-11-03T23:27:54.236Z,16.50
2022-11-03T23:30:21.171Z,16.50
2022-11-03T23:32:48.165Z,16.50
2022-11-03T23:35:15.130Z,16.50
2022-11-03T23:37:42.000Z,16.50
2022-11-03T23:40:09.620Z,16.50
2022-11-03T23:42:36.534Z,16.50
2022-11-03T23:45:22.365Z,16.50
2022-11-03T23:48:07.925Z,16.50
2022-11-03T23:50:35.101Z,16.50
2022-11-03T23:53:02.040Z,16.50
2022-11-03T23:55:49.124Z,16.50
2022-11-03T23:58:18.795Z,16.50
